Pagrindinis puslapis
METAR-TAF:

METAR-TAF

Oro uostai :

Iljeusas, Bahija, Brazilija

platuma: 14-49S, ilguma: 039-02W, Aukštis: 4 m

Dabartinis oras

Ataskaita buvo paskelbta 50 minutes, ne 02:00 UTC
Vėjas 4 kt iš Rytų/Šiaurės Rytų
Temperatūra 29°C
Drėgmė 79%
Slėgis 1013 hPa
Matomumas 10 km arba daugiau
Išsisklaidę debesys ne aukštis 2000 ft

METAR: SBIL 210200Z 07004KT 9999 SCT020 29/25 Q1013

Laikas: 23:50 (02:50 UTC)

Prognozė

Ataskaita buvo paskelbta 4 valandos ir 50 minutes, ne 22:00 UTC
Prognozė galioja nuo 21 metu 00 UTC su 21 metu 12 UTC
Vėjas 7 kt iš Pietvakarių
Matomumas 10 km arba daugiau
Išsisklaidę debesys ne aukštis 2500 ft

TAF: SBIL 202200Z 2100/2112 23007KT 9999 SCT025 TX29/2100Z TN24/2109Z RMK PED

Orai ataskaitas ir orų prognozės (METAR, TAF).

turimą stotys yra geltonos ir raudonos taškus žemėlapyje.

Perkelti pele per norėdami pamatyti stoties vardą.

Tada spustelėkite, norėdami matyti oro stebėjimo ir prognozės.

Norėdami pakeisti žemėlapį: spustelėkite ant žalios mygtukų su juodo kryžiaus žemyn,; žalią mygtuką su brūkšneliu, jei norite nutolinti; arba žalių rodyklių gretimoms žemėlapius.


METAR-TAF: